createdAt,value
2019-01-03T00:08:01.335Z,0.23
2019-01-03T01:05:56.475Z,0
2019-01-03T01:34:32.645Z,-0.27
2019-01-03T02:03:08.782Z,-0.46
2019-01-03T02:31:48.021Z,-0.62
2019-01-03T03:00:20.522Z,-0.84
2019-01-03T03:28:56.988Z,-1.21
2019-01-03T03:57:36.121Z,-1.35
2019-01-03T04:26:09.737Z,-1.43
2019-01-03T04:54:42.686Z,-1.53
2019-01-03T05:23:20.803Z,-1.64
2019-01-03T05:51:55.062Z,-1.63
2019-01-03T06:20:29.588Z,-1.67
2019-01-03T06:49:06.240Z,-1.63
2019-01-03T07:17:44.917Z,-1.59
2019-01-03T07:46:17.891Z,-1.57
2019-01-03T08:14:53.427Z,-1.2
2019-01-03T08:43:36.834Z,-0.46
2019-01-03T09:12:14.425Z,0.08
2019-01-03T09:40:57.021Z,0.5
2019-01-03T10:09:35.980Z,0.83
2019-01-03T10:38:09.900Z,1.22
2019-01-03T11:06:50.224Z,1.67
2019-01-03T11:35:31.911Z,2.25
2019-01-03T12:04:12.012Z,2.68
2019-01-03T12:32:51.957Z,2.77
2019-01-03T13:01:30.465Z,2.64
2019-01-03T13:30:09.691Z,2.46
2019-01-03T13:58:47.198Z,2.31
2019-01-03T14:56:28.770Z,2.02
2019-01-03T15:25:04.018Z,1.57
2019-01-03T15:53:41.259Z,1.31
2019-01-03T16:22:19.508Z,1.23
2019-01-03T16:50:57.236Z,1.23
2019-01-03T17:19:35.941Z,1
2019-01-03T17:48:03.042Z,0.9
2019-01-03T18:16:38.513Z,0.75
2019-01-03T18:45:16.663Z,0.67
2019-01-03T19:13:54.138Z,0.92
2019-01-03T19:42:33.045Z,0.83
2019-01-03T20:11:07.459Z,0.7
2019-01-03T20:39:44.149Z,0.62
2019-01-03T21:08:20.677Z,0.51
2019-01-03T21:36:56.524Z,0.39
2019-01-03T22:05:36.295Z,0.68
2019-01-03T22:34:13.251Z,0.84
2019-01-03T23:02:51.231Z,0.9
2019-01-03T23:31:29.604Z,0.95
